sensor_id;sensor_type;location;lat;lon;timestamp;pressure;altitude;pressure_sealevel;temperature;humidity
9277;BME280;4676;42.678;23.244;2023-01-15T00:01:20;94491.28;;;3.94;100.00
9277;BME280;4676;42.678;23.244;2023-01-15T00:03:49;94489.66;;;3.93;100.00
9277;BME280;4676;42.678;23.244;2023-01-15T00:06:16;94488.00;;;3.89;100.00
9277;BME280;4676;42.678;23.244;2023-01-15T00:08:44;94486.31;;;3.93;100.00
9277;BME280;4676;42.678;23.244;2023-01-15T00:11:10;94482.16;;;3.87;100.00
9277;BME280;4676;42.678;23.244;2023-01-15T00:13:37;94482.97;;;3.91;100.00
9277;BME280;4676;42.678;23.244;2023-01-15T00:16:04;94479.56;;;3.99;100.00
9277;BME280;4676;42.678;23.244;2023-01-15T00:18:31;94490.50;;;3.94;100.00
9277;BME280;4676;42.678;23.244;2023-01-15T00:21:00;94483.84;;;3.88;100.00
9277;BME280;4676;42.678;23.244;2023-01-15T00:23:28;94493.13;;;3.77;100.00
9277;BME280;4676;42.678;23.244;2023-01-15T00:26:14;94483.97;;;3.72;100.00
9277;BME280;4676;42.678;23.244;2023-01-15T00:28:54;94490.69;;;3.67;100.00
9277;BME280;4676;42.678;23.244;2023-01-15T00:31:21;94492.41;;;3.62;100.00
9277;BME280;4676;42.678;23.244;2023-01-15T00:33:48;94493.25;;;3.59;100.00
9277;BME280;4676;42.678;23.244;2023-01-15T00:36:16;94482.38;;;3.65;100.00
9277;BME280;4676;42.678;23.244;2023-01-15T00:38:43;94481.56;;;3.60;100.00
9277;BME280;4676;42.678;23.244;2023-01-15T00:41:09;94485.78;;;3.55;100.00
9277;BME280;4676;42.678;23.244;2023-01-15T00:43:36;94485.78;;;3.53;100.00
9277;BME280;4676;42.678;23.244;2023-01-15T00:46:03;94483.22;;;3.61;100.00
9277;BME280;4676;42.678;23.244;2023-01-15T00:48:30;94476.53;;;3.60;100.00
9277;BME280;4676;42.678;23.244;2023-01-15T00:50:57;94474.03;;;3.60;100.00
9277;BME280;4676;42.678;23.244;2023-01-15T00:53:25;94476.53;;;3.60;100.00
9277;BME280;4676;42.678;23.244;2023-01-15T00:55:51;94474.00;;;3.66;100.00
9277;BME280;4676;42.678;23.244;2023-01-15T00:58:18;94478.16;;;3.68;100.00
9277;BME280;4676;42.678;23.244;2023-01-15T01:00:52;94465.69;;;3.61;100.00
9277;BME280;4676;42.678;23.244;2023-01-15T01:03:18;94483.16;;;3.68;100.00
9277;BME280;4676;42.678;23.244;2023-01-15T01:05:45;94483.16;;;3.67;100.00
9277;BME280;4676;42.678;23.244;2023-01-15T01:08:12;94476.50;;;3.64;100.00
9277;BME280;4676;42.678;23.244;2023-01-15T01:10:40;94479.03;;;3.66;100.00
9277;BME280;4676;42.678;23.244;2023-01-15T01:13:07;94464.88;;;3.57;100.00
9277;BME280;4676;42.678;23.244;2023-01-15T01:15:34;94471.53;;;3.61;100.00
9277;BME280;4676;42.678;23.244;2023-01-15T01:18:02;94470.69;;;3.61;100.00
9277;BME280;4676;42.678;23.244;2023-01-15T01:20:29;94445.69;;;3.53;100.00
9277;BME280;4676;42.678;23.244;2023-01-15T01:22:56;94469.81;;;3.63;100.00
9277;BME280;4676;42.678;23.244;2023-01-15T01:25:23;94460.66;;;3.65;100.00
9277;BME280;4676;42.678;23.244;2023-01-15T01:27:51;94462.25;;;3.71;100.00
9277;BME280;4676;42.678;23.244;2023-01-15T01:30:18;94453.13;;;3.65;100.00
9277;BME280;4676;42.678;23.244;2023-01-15T01:32:45;94470.63;;;3.68;100.00
9277;BME280;4676;42.678;23.244;2023-01-15T01:35:11;94465.66;;;3.64;100.00
9277;BME280;4676;42.678;23.244;2023-01-15T01:37:38;94469.00;;;3.66;100.00
9277;BME280;4676;42.678;23.244;2023-01-15T01:40:05;94467.31;;;3.65;100.00
9277;BME280;4676;42.678;23.244;2023-01-15T01:42:32;94459.84;;;3.62;100.00
9277;BME280;4676;42.678;23.244;2023-01-15T01:45:08;94452.34;;;3.56;100.00
9277;BME280;4676;42.678;23.244;2023-01-15T01:47:38;94460.59;;;3.73;100.00
9277;BME280;4676;42.678;23.244;2023-01-15T01:50:10;94461.44;;;3.69;100.00
9277;BME280;4676;42.678;23.244;2023-01-15T01:52:40;94469.03;;;3.61;100.00
9277;BME280;4676;42.678;23.244;2023-01-15T01:55:11;94457.38;;;3.54;100.00
9277;BME280;4676;42.678;23.244;2023-01-15T01:57:39;94440.78;;;3.39;100.00
9277;BME280;4676;42.678;23.244;2023-01-15T02:00:10;94464.00;;;3.60;100.00
9277;BME280;4676;42.678;23.244;2023-01-15T02:02:39;94458.13;;;3.64;100.00
9277;BME280;4676;42.678;23.244;2023-01-15T02:05:07;94454.78;;;3.65;100.00
9277;BME280;4676;42.678;23.244;2023-01-15T02:07:35;94454.00;;;3.60;100.00
9277;BME280;4676;42.678;23.244;2023-01-15T02:10:02;94448.19;;;3.53;100.00
9277;BME280;4676;42.678;23.244;2023-01-15T02:12:33;94457.31;;;3.60;100.00
9277;BME280;4676;42.678;23.244;2023-01-15T02:15:05;94380.84;;;3.20;100.00
9277;BME280;4676;42.678;23.244;2023-01-15T02:17:42;94449.78;;;3.65;100.00
9277;BME280;4676;42.678;23.244;2023-01-15T02:20:23;94455.56;;;3.70;100.00
9277;BME280;4676;42.678;23.244;2023-01-15T02:23:26;94448.84;;;3.73;100.00
9277;BME280;4676;42.678;23.244;2023-01-15T02:26:20;94453.03;;;3.76;100.00
9277;BME280;4676;42.678;23.244;2023-01-15T02:28:54;94452.25;;;3.68;100.00
9277;BME280;4676;42.678;23.244;2023-01-15T02:31:26;94450.59;;;3.68;100.00
9277;BME280;4676;42.678;23.244;2023-01-15T02:33:57;94451.38;;;3.76;100.00
9277;BME280;4676;42.678;23.244;2023-01-15T02:36:28;94450.56;;;3.70;100.00
9277;BME280;4676;42.678;23.244;2023-01-15T02:38:57;94445.56;;;3.68;100.00
9277;BME280;4676;42.678;23.244;2023-01-15T02:41:28;94443.06;;;3.68;100.00
9277;BME280;4676;42.678;23.244;2023-01-15T02:44:00;94418.13;;;3.53;100.00
9277;BME280;4676;42.678;23.244;2023-01-15T02:46:33;94429.69;;;3.71;100.00
9277;BME280;4676;42.678;23.244;2023-01-15T02:49:02;94440.50;;;3.74;100.00
9277;BME280;4676;42.678;23.244;2023-01-15T02:51:36;94441.44;;;3.66;100.00
9277;BME280;4676;42.678;23.244;2023-01-15T02:54:09;94438.03;;;3.70;100.00
9277;BME280;4676;42.678;23.244;2023-01-15T02:56:39;94441.38;;;3.70;100.00
9277;BME280;4676;42.678;23.244;2023-01-15T02:59:12;94448.06;;;3.70;100.00
9277;BME280;4676;42.678;23.244;2023-01-15T03:01:43;94435.53;;;3.73;100.00
9277;BME280;4676;42.678;23.244;2023-01-15T03:04:16;94445.44;;;3.85;100.00
9277;BME280;4676;42.678;23.244;2023-01-15T03:06:48;94445.22;;;4.08;100.00
9277;BME280;4676;42.678;23.244;2023-01-15T03:09:19;94431.16;;;3.93;100.00
9277;BME280;4676;42.678;23.244;2023-01-15T03:11:52;94438.47;;;4.13;100.00
9277;BME280;4676;42.678;23.244;2023-01-15T03:14:31;94443.56;;;4.08;100.00
9277;BME280;4676;42.678;23.244;2023-01-15T03:17:04;94446.16;;;3.97;100.00
9277;BME280;4676;42.678;23.244;2023-01-15T03:19:40;94433.72;;;3.84;100.00
9277;BME280;4676;42.678;23.244;2023-01-15T03:22:13;94436.13;;;3.94;100.00
9277;BME280;4676;42.678;23.244;2023-01-15T03:24:46;94437.81;;;3.95;100.00
9277;BME280;4676;42.678;23.244;2023-01-15T03:27:15;94428.66;;;3.93;100.00
9277;BME280;4676;42.678;23.244;2023-01-15T03:29:47;94421.19;;;3.87;100.00
9277;BME280;4676;42.678;23.244;2023-01-15T03:32:15;94425.38;;;3.86;100.00
9277;BME280;4676;42.678;23.244;2023-01-15T03:34:46;94421.16;;;3.90;100.00
9277;BME280;4676;42.678;23.244;2023-01-15T03:37:14;94430.28;;;3.97;100.00
9277;BME280;4676;42.678;23.244;2023-01-15T03:39:41;94392.88;;;3.76;100.00
9277;BME280;4676;42.678;23.244;2023-01-15T03:42:19;94425.31;;;3.94;100.00
9277;BME280;4676;42.678;23.244;2023-01-15T03:44:57;94425.34;;;3.89;100.00
9277;BME280;4676;42.678;23.244;2023-01-15T03:47:37;94438.75;;;3.85;100.00
9277;BME280;4676;42.678;23.244;2023-01-15T03:50:12;94437.03;;;3.87;100.00
9277;BME280;4676;42.678;23.244;2023-01-15T03:52:51;94432.91;;;3.83;100.00
9277;BME280;4676;42.678;23.244;2023-01-15T03:55:26;94432.00;;;3.93;100.00
9277;BME280;4676;42.678;23.244;2023-01-15T03:57:59;94435.44;;;3.80;100.00
9277;BME280;4676;42.678;23.244;2023-01-15T04:00:34;94437.09;;;3.81;100.00
9277;BME280;4676;42.678;23.244;2023-01-15T04:03:03;94434.47;;;3.95;100.00
9277;BME280;4676;42.678;23.244;2023-01-15T04:05:33;94437.75;;;4.01;100.00
9277;BME280;4676;42.678;23.244;2023-01-15T04:08:02;94430.38;;;3.86;100.00
9277;BME280;4676;42.678;23.244;2023-01-15T04:10:30;94433.66;;;3.91;100.00
9277;BME280;4676;42.678;23.244;2023-01-15T04:12:56;94432.66;;;4.11;100.00
9277;BME280;4676;42.678;23.244;2023-01-15T04:15:23;94431.81;;;4.10;100.00
9277;BME280;4676;42.678;23.244;2023-01-15T04:17:51;94442.88;;;3.89;100.00
9277;BME280;4676;42.678;23.244;2023-01-15T04:20:18;94436.22;;;3.85;100.00
9277;BME280;4676;42.678;23.244;2023-01-15T04:22:45;94437.94;;;3.82;100.00
9277;BME280;4676;42.678;23.244;2023-01-15T04:25:11;94432.13;;;3.77;100.00
9277;BME280;4676;42.678;23.244;2023-01-15T04:27:38;94436.41;;;3.66;100.00
9277;BME280;4676;42.678;23.244;2023-01-15T04:30:06;94445.56;;;3.67;100.00
9277;BME280;4676;42.678;23.244;2023-01-15T04:32:33;94447.94;;;3.85;100.00
9277;BME280;4676;42.678;23.244;2023-01-15T04:35:01;94448.63;;;3.99;100.00
9277;BME280;4676;42.678;23.244;2023-01-15T04:37:27;94451.31;;;3.82;100.00
9277;BME280;4676;42.678;23.244;2023-01-15T04:39:54;94437.06;;;3.84;100.00
9277;BME280;4676;42.678;23.244;2023-01-15T04:42:21;94441.31;;;3.79;100.00
9277;BME280;4676;42.678;23.244;2023-01-15T04:45:06;94435.50;;;3.76;100.00
9277;BME280;4676;42.678;23.244;2023-01-15T04:47:33;94434.69;;;3.71;100.00
9277;BME280;4676;42.678;23.244;2023-01-15T04:50:01;94445.56;;;3.68;100.00
9277;BME280;4676;42.678;23.244;2023-01-15T04:52:27;94442.22;;;3.69;100.00
9277;BME280;4676;42.678;23.244;2023-01-15T04:54:54;94444.03;;;3.55;100.00
9277;BME280;4676;42.678;23.244;2023-01-15T04:57:21;94448.28;;;3.42;100.00
9277;BME280;4676;42.678;23.244;2023-01-15T04:59:47;94454.13;;;3.41;100.00
9277;BME280;4676;42.678;23.244;2023-01-15T05:02:14;94445.03;;;3.28;100.00
9277;BME280;4676;42.678;23.244;2023-01-15T05:04:41;94449.25;;;3.20;100.00
9277;BME280;4676;42.678;23.244;2023-01-15T05:07:09;94445.16;;;3.10;100.00
9277;BME280;4676;42.678;23.244;2023-01-15T05:09:36;94445.22;;;3.03;100.00
9277;BME280;4676;42.678;23.244;2023-01-15T05:12:03;94455.31;;;2.87;100.00
9277;BME280;4676;42.678;23.244;2023-01-15T05:14:30;94455.31;;;2.83;100.00
9277;BME280;4676;42.678;23.244;2023-01-15T05:16:57;94451.22;;;2.74;100.00
9277;BME280;4676;42.678;23.244;2023-01-15T05:19:23;94451.19;;;2.71;100.00
9277;BME280;4676;42.678;23.244;2023-01-15T05:21:50;94454.53;;;2.78;100.00
9277;BME280;4676;42.678;23.244;2023-01-15T05:24:21;94447.91;;;2.63;100.00
9277;BME280;4676;42.678;23.244;2023-01-15T05:26:48;94452.13;;;2.55;100.00
9277;BME280;4676;42.678;23.244;2023-01-15T05:29:15;94458.78;;;2.51;100.00
9277;BME280;4676;42.678;23.244;2023-01-15T05:31:41;94454.66;;;2.46;100.00
9277;BME280;4676;42.678;23.244;2023-01-15T05:34:09;94453.00;;;2.45;100.00
9277;BME280;4676;42.678;23.244;2023-01-15T05:36:36;94456.31;;;2.44;100.00
9277;BME280;4676;42.678;23.244;2023-01-15T05:39:03;94453.84;;;2.38;100.00
9277;BME280;4676;42.678;23.244;2023-01-15T05:41:31;94462.19;;;2.37;100.00
9277;BME280;4676;42.678;23.244;2023-01-15T05:44:19;94450.50;;;2.36;100.00
9277;BME280;4676;42.678;23.244;2023-01-15T05:46:47;94463.03;;;2.30;100.00
9277;BME280;4676;42.678;23.244;2023-01-15T05:49:16;94463.88;;;2.23;100.00
9277;BME280;4676;42.678;23.244;2023-01-15T05:51:43;94462.22;;;2.11;100.00
9277;BME280;4676;42.678;23.244;2023-01-15T05:54:12;94450.63;;;2.04;100.00
9277;BME280;4676;42.678;23.244;2023-01-15T05:56:41;94463.06;;;2.13;100.00
9277;BME280;4676;42.678;23.244;2023-01-15T05:59:11;94464.75;;;2.17;100.00
9277;BME280;4676;42.678;23.244;2023-01-15T06:01:38;94453.06;;;2.18;100.00
9277;BME280;4676;42.678;23.244;2023-01-15T06:04:06;94469.72;;;2.16;100.00
9277;BME280;4676;42.678;23.244;2023-01-15T06:06:33;94473.06;;;2.18;100.00
9277;BME280;4676;42.678;23.244;2023-01-15T06:09:01;94477.22;;;2.23;100.00
9277;BME280;4676;42.678;23.244;2023-01-15T06:11:28;94468.03;;;2.27;100.00
9277;BME280;4676;42.678;23.244;2023-01-15T06:13:56;94449.75;;;2.07;100.00
9277;BME280;4676;42.678;23.244;2023-01-15T06:16:23;94463.03;;;2.22;100.00
9277;BME280;4676;42.678;23.244;2023-01-15T06:18:50;94469.72;;;2.19;100.00
9277;BME280;4676;42.678;23.244;2023-01-15T06:21:17;94432.28;;;1.96;100.00
9277;BME280;4676;42.678;23.244;2023-01-15T06:23:45;94458.09;;;2.13;100.00
9277;BME280;4676;42.678;23.244;2023-01-15T06:26:14;94454.72;;;2.23;100.00
9277;BME280;4676;42.678;23.244;2023-01-15T06:28:43;94462.19;;;2.34;100.00
9277;BME280;4676;42.678;23.244;2023-01-15T06:31:13;94453.81;;;2.39;100.00
9277;BME280;4676;42.678;23.244;2023-01-15T06:33:40;94456.34;;;2.33;100.00
9277;BME280;4676;42.678;23.244;2023-01-15T06:36:09;94462.19;;;2.35;100.00
9277;BME280;4676;42.678;23.244;2023-01-15T06:38:36;94463.03;;;2.39;100.00
9277;BME280;4676;42.678;23.244;2023-01-15T06:41:06;94464.69;;;2.37;100.00
9277;BME280;4676;42.678;23.244;2023-01-15T06:43:54;94466.31;;;2.44;100.00
9277;BME280;4676;42.678;23.244;2023-01-15T06:46:42;94462.16;;;2.46;100.00
9277;BME280;4676;42.678;23.244;2023-01-15T06:49:27;94467.97;;;2.43;100.00
9277;BME280;4676;42.678;23.244;2023-01-15T06:51:54;94457.97;;;2.49;100.00
9277;BME280;4676;42.678;23.244;2023-01-15T06:54:21;94462.13;;;2.50;100.00
9277;BME280;4676;42.678;23.244;2023-01-15T06:56:48;94467.09;;;2.58;100.00
9277;BME280;4676;42.678;23.244;2023-01-15T06:59:15;94452.06;;;2.61;100.00
9277;BME280;4676;42.678;23.244;2023-01-15T07:01:43;94455.38;;;2.69;100.00
9277;BME280;4676;42.678;23.244;2023-01-15T07:04:10;94458.66;;;2.83;100.00
9277;BME280;4676;42.678;23.244;2023-01-15T07:06:37;94464.50;;;2.84;100.00
9277;BME280;4676;42.678;23.244;2023-01-15T07:09:03;94459.47;;;2.90;100.00
9277;BME280;4676;42.678;23.244;2023-01-15T07:11:30;94463.63;;;2.95;100.00
9277;BME280;4676;42.678;23.244;2023-01-15T07:13:57;94460.22;;;2.99;100.00
9277;BME280;4676;42.678;23.244;2023-01-15T07:16:31;94442.00;;;2.81;100.00
9277;BME280;4676;42.678;23.244;2023-01-15T07:18:59;94471.06;;;3.09;100.00
9277;BME280;4676;42.678;23.244;2023-01-15T07:21:26;94457.75;;;3.03;100.00
9277;BME280;4676;42.678;23.244;2023-01-15T07:23:53;94466.03;;;3.12;100.00
9277;BME280;4676;42.678;23.244;2023-01-15T07:26:20;94466.75;;;3.25;100.00
9277;BME280;4676;42.678;23.244;2023-01-15T07:28:47;94473.44;;;3.24;100.00
9277;BME280;4676;42.678;23.244;2023-01-15T07:31:14;94477.56;;;3.37;100.00
9277;BME280;4676;42.678;23.244;2023-01-15T07:33:40;94471.69;;;3.40;100.00
9277;BME280;4676;42.678;23.244;2023-01-15T07:36:09;94466.66;;;3.43;100.00
9277;BME280;4676;42.678;23.244;2023-01-15T07:38:36;94480.69;;;3.64;100.00
9277;BME280;4676;42.678;23.244;2023-01-15T07:41:03;94479.69;;;3.86;100.00
9277;BME280;4676;42.678;23.244;2023-01-15T07:43:47;94480.44;;;3.95;100.00
9277;BME280;4676;42.678;23.244;2023-01-15T07:46:31;94479.63;;;3.92;100.00
9277;BME280;4676;42.678;23.244;2023-01-15T07:49:15;94487.13;;;3.95;100.00
9277;BME280;4676;42.678;23.244;2023-01-15T07:52:01;94478.69;;;4.03;100.00
9277;BME280;4676;42.678;23.244;2023-01-15T07:54:28;94471.06;;;4.14;100.00
9277;BME280;4676;42.678;23.244;2023-01-15T07:56:55;94464.41;;;4.10;100.00
9277;BME280;4676;42.678;23.244;2023-01-15T07:59:22;94469.41;;;4.15;100.00
9277;BME280;4676;42.678;23.244;2023-01-15T08:01:49;94466.13;;;4.08;100.00
9277;BME280;4676;42.678;23.244;2023-01-15T08:04:16;94461.00;;;4.16;100.00
9277;BME280;4676;42.678;23.244;2023-01-15T08:06:43;94464.28;;;4.22;100.00
9277;BME280;4676;42.678;23.244;2023-01-15T08:09:11;94467.59;;;4.26;100.00
9277;BME280;4676;42.678;23.244;2023-01-15T08:11:38;94416.16;;;3.90;100.00
9277;BME280;4676;42.678;23.244;2023-01-15T08:14:22;94470.94;;;4.28;100.00
9277;BME280;4676;42.678;23.244;2023-01-15T08:17:06;94469.25;;;4.28;100.00
9277;BME280;4676;42.678;23.244;2023-01-15T08:19:32;94477.50;;;4.38;100.00
9277;BME280;4676;42.678;23.244;2023-01-15T08:21:59;94482.56;;;4.35;100.00
9277;BME280;4676;42.678;23.244;2023-01-15T08:24:28;94480.03;;;4.38;100.00
9277;BME280;4676;42.678;23.244;2023-01-15T08:26:57;94481.63;;;4.43;100.00
9277;BME280;4676;42.678;23.244;2023-01-15T08:29:24;94459.16;;;4.33;100.00
9277;BME280;4676;42.678;23.244;2023-01-15T08:31:51;94485.94;;;4.32;100.00
9277;BME280;4676;42.678;23.244;2023-01-15T08:34:17;94474.28;;;4.28;100.00
9277;BME280;4676;42.678;23.244;2023-01-15T08:36:44;94480.91;;;4.34;100.00
9277;BME280;4676;42.678;23.244;2023-01-15T08:39:11;94478.41;;;4.32;100.00
9277;BME280;4676;42.678;23.244;2023-01-15T08:41:39;94479.41;;;4.18;100.00
9277;BME280;4676;42.678;23.244;2023-01-15T08:44:06;94481.06;;;4.16;100.00
9277;BME280;4676;42.678;23.244;2023-01-15T08:46:33;94471.00;;;4.19;100.00
9277;BME280;4676;42.678;23.244;2023-01-15T08:48:59;94477.69;;;4.20;100.00
9277;BME280;4676;42.678;23.244;2023-01-15T08:51:26;94475.00;;;4.36;100.00
9277;BME280;4676;42.678;23.244;2023-01-15T08:53:53;94449.16;;;4.30;100.00
9277;BME280;4676;42.678;23.244;2023-01-15T08:56:20;94478.88;;;4.68;100.00
9277;BME280;4676;42.678;23.244;2023-01-15T08:58:48;94477.16;;;4.68;100.00
9277;BME280;4676;42.678;23.244;2023-01-15T09:01:14;94475.41;;;4.76;100.00
9277;BME280;4676;42.678;23.244;2023-01-15T09:03:41;94470.16;;;4.96;100.00
9277;BME280;4676;42.678;23.244;2023-01-15T09:06:09;94485.19;;;4.99;100.00
9277;BME280;4676;42.678;23.244;2023-01-15T09:08:38;94481.66;;;5.12;100.00
9277;BME280;4676;42.678;23.244;2023-01-15T09:11:06;94465.63;;;5.21;100.00
9277;BME280;4676;42.678;23.244;2023-01-15T09:13:35;94474.66;;;5.34;100.00
9277;BME280;4676;42.678;23.244;2023-01-15T09:16:06;94471.97;;;5.46;100.00
9277;BME280;4676;42.678;23.244;2023-01-15T09:18:35;94468.03;;;5.30;100.00
9277;BME280;4676;42.678;23.244;2023-01-15T09:21:02;94465.31;;;5.42;100.00
9277;BME280;4676;42.678;23.244;2023-01-15T09:23:29;94456.84;;;5.49;100.00
9277;BME280;4676;42.678;23.244;2023-01-15T09:25:57;94463.47;;;5.54;100.00
9277;BME280;4676;42.678;23.244;2023-01-15T09:28:24;94449.00;;;5.67;100.00
9277;BME280;4676;42.678;23.244;2023-01-15T09:30:50;94448.00;;;5.77;100.00
9277;BME280;4676;42.678;23.244;2023-01-15T09:33:19;94449.59;;;5.87;100.00
9277;BME280;4676;42.678;23.244;2023-01-15T09:35:45;94436.13;;;5.90;100.00
9277;BME280;4676;42.678;23.244;2023-01-15T09:38:14;94441.97;;;5.90;100.00
9277;BME280;4676;42.678;23.244;2023-01-15T09:40:46;94441.09;;;5.93;100.00
9277;BME280;4676;42.678;23.244;2023-01-15T09:43:28;94432.59;;;6.00;100.00
9277;BME280;4676;42.678;23.244;2023-01-15T09:46:00;94429.81;;;6.15;100.00
9277;BME280;4676;42.678;23.244;2023-01-15T09:48:42;94429.03;;;6.10;100.00
9277;BME280;4676;42.678;23.244;2023-01-15T09:51:18;94419.91;;;6.06;100.00
9277;BME280;4676;42.678;23.244;2023-01-15T09:54:04;94406.03;;;5.81;100.00
9277;BME280;4676;42.678;23.244;2023-01-15T09:56:37;94414.28;;;5.92;100.00
9277;BME280;4676;42.678;23.244;2023-01-15T09:59:11;94397.72;;;5.79;100.00
9277;BME280;4676;42.678;23.244;2023-01-15T10:01:42;94404.47;;;5.77;100.00
9277;BME280;4676;42.678;23.244;2023-01-15T10:04:17;94395.09;;;5.86;100.00
9277;BME280;4676;42.678;23.244;2023-01-15T10:06:52;94384.00;;;5.98;100.00
9277;BME280;4676;42.678;23.244;2023-01-15T10:09:28;94382.91;;;6.11;100.00
9277;BME280;4676;42.678;23.244;2023-01-15T10:12:05;94384.41;;;6.20;100.00
9277;BME280;4676;42.678;23.244;2023-01-15T10:14:57;94375.56;;;5.99;100.00
9277;BME280;4676;42.678;23.244;2023-01-15T10:17:29;94367.97;;;6.02;100.00
9277;BME280;4676;42.678;23.244;2023-01-15T10:20:01;94367.31;;;5.92;100.00
9277;BME280;4676;42.678;23.244;2023-01-15T10:22:57;94344.09;;;5.77;100.00
9277;BME280;4676;42.678;23.244;2023-01-15T10:25:32;94361.50;;;5.90;100.00
9277;BME280;4676;42.678;23.244;2023-01-15T10:28:12;94356.53;;;5.86;100.00
9277;BME280;4676;42.678;23.244;2023-01-15T10:30:46;94356.91;;;5.63;100.00
9277;BME280;4676;42.678;23.244;2023-01-15T10:33:29;94350.31;;;5.56;100.00
9277;BME280;4676;42.678;23.244;2023-01-15T10:36:07;94343.38;;;5.70;100.00
9277;BME280;4676;42.678;23.244;2023-01-15T10:38:44;94337.75;;;5.56;100.00
9277;BME280;4676;42.678;23.244;2023-01-15T10:41:25;94327.00;;;5.48;100.00
9277;BME280;4676;42.678;23.244;2023-01-15T10:44:00;94329.41;;;5.56;100.00
9277;BME280;4676;42.678;23.244;2023-01-15T10:46:30;94326.91;;;5.54;100.00
9277;BME280;4676;42.678;23.244;2023-01-15T10:49:04;94319.94;;;5.68;100.00
9277;BME280;4676;42.678;23.244;2023-01-15T10:51:39;94307.16;;;5.80;100.00
9277;BME280;4676;42.678;23.244;2023-01-15T10:54:13;94305.06;;;6.03;100.00
9277;BME280;4676;42.678;23.244;2023-01-15T10:56:44;94295.00;;;6.05;100.00
9277;BME280;4676;42.678;23.244;2023-01-15T10:59:16;94311.00;;;5.99;100.00
9277;BME280;4676;42.678;23.244;2023-01-15T11:01:48;94297.94;;;5.79;100.00
9277;BME280;4676;42.678;23.244;2023-01-15T11:04:17;94296.38;;;5.74;100.00
9277;BME280;4676;42.678;23.244;2023-01-15T11:06:45;94283.53;;;5.89;100.00
9277;BME280;4676;42.678;23.244;2023-01-15T11:09:18;94275.94;;;5.92;100.00
9277;BME280;4676;42.678;23.244;2023-01-15T11:11:47;94255.94;;;5.86;100.00
9277;BME280;4676;42.678;23.244;2023-01-15T11:14:36;94276.91;;;6.28;100.00
9277;BME280;4676;42.678;23.244;2023-01-15T11:17:22;94260.78;;;6.36;100.00
9277;BME280;4676;42.678;23.244;2023-01-15T11:20:16;94222.31;;;6.30;100.00
9277;BME280;4676;42.678;23.244;2023-01-15T11:22:48;94262.72;;;6.62;100.00
9277;BME280;4676;42.678;23.244;2023-01-15T11:25:24;94260.94;;;6.67;100.00
9277;BME280;4676;42.678;23.244;2023-01-15T11:27:52;94265.22;;;6.64;100.00
9277;BME280;4676;42.678;23.244;2023-01-15T11:30:27;94262.13;;;6.51;100.00
9277;BME280;4676;42.678;23.244;2023-01-15T11:32:56;94254.78;;;6.42;100.00
9277;BME280;4676;42.678;23.244;2023-01-15T11:35:23;94252.78;;;6.56;100.00
9277;BME280;4676;42.678;23.244;2023-01-15T11:38:02;94243.91;;;6.78;100.00
9277;BME280;4676;42.678;23.244;2023-01-15T11:40:29;94250.81;;;7.04;100.00
9277;BME280;4676;42.678;23.244;2023-01-15T11:42:56;94243.22;;;7.06;100.00
9277;BME280;4676;42.678;23.244;2023-01-15T11:45:46;94243.22;;;7.06;100.00
9277;BME280;4676;42.678;23.244;2023-01-15T11:48:43;94242.31;;;7.08;100.00
9277;BME280;4676;42.678;23.244;2023-01-15T11:51:27;94234.94;;;6.65;100.00
9277;BME280;4676;42.678;23.244;2023-01-15T11:54:01;94230.50;;;6.76;100.00
9277;BME280;4676;42.678;23.244;2023-01-15T11:56:32;94226.25;;;6.78;100.00
9277;BME280;4676;42.678;23.244;2023-01-15T11:59:03;94232.47;;;6.99;100.00
9277;BME280;4676;42.678;23.244;2023-01-15T12:01:36;94227.19;;;7.10;100.00
9277;BME280;4676;42.678;23.244;2023-01-15T12:04:21;94225.25;;;7.19;100.00
9277;BME280;4676;42.678;23.244;2023-01-15T12:06:50;94224.22;;;7.28;100.00
9277;BME280;4676;42.678;23.244;2023-01-15T12:09:26;94217.03;;;7.45;100.00
9277;BME280;4676;42.678;23.244;2023-01-15T12:12:03;94223.56;;;7.52;100.00
9277;BME280;4676;42.678;23.244;2023-01-15T12:14:48;94216.00;;;7.52;100.00
9277;BME280;4676;42.678;23.244;2023-01-15T12:17:55;94212.66;;;7.51;100.00
9277;BME280;4676;42.678;23.244;2023-01-15T12:20:26;94204.63;;;7.37;100.00
9277;BME280;4676;42.678;23.244;2023-01-15T12:23:13;94194.00;;;7.25;100.00
9277;BME280;4676;42.678;23.244;2023-01-15T12:25:56;94207.22;;;7.34;100.00
9277;BME280;4676;42.678;23.244;2023-01-15T12:28:29;94206.69;;;7.22;100.00
9277;BME280;4676;42.678;23.244;2023-01-15T12:31:00;94203.31;;;7.23;100.00
9277;BME280;4676;42.678;23.244;2023-01-15T12:33:40;94206.84;;;7.17;100.00
9277;BME280;4676;42.678;23.244;2023-01-15T12:36:13;94197.50;;;7.21;100.00
9277;BME280;4676;42.678;23.244;2023-01-15T12:38:50;94199.13;;;7.22;100.00
9277;BME280;4676;42.678;23.244;2023-01-15T12:41:25;94198.09;;;7.29;100.00
9277;BME280;4676;42.678;23.244;2023-01-15T12:44:15;94194.94;;;7.22;100.00
9277;BME280;4676;42.678;23.244;2023-01-15T12:47:06;94194.63;;;7.00;100.00
9277;BME280;4676;42.678;23.244;2023-01-15T12:49:42;94193.59;;;7.09;100.00
9277;BME280;4676;42.678;23.244;2023-01-15T12:52:15;94190.06;;;7.16;100.00
9277;BME280;4676;42.678;23.244;2023-01-15T12:54:51;94181.75;;;7.13;100.00
9277;BME280;4676;42.678;23.244;2023-01-15T12:57:30;94180.06;;;7.12;100.00
9277;BME280;4676;42.678;23.244;2023-01-15T13:00:02;94183.84;;;6.95;100.00
9277;BME280;4676;42.678;23.244;2023-01-15T13:02:36;94182.03;;;7.00;100.00
9277;BME280;4676;42.678;23.244;2023-01-15T13:05:15;94172.75;;;7.02;100.00
9277;BME280;4676;42.678;23.244;2023-01-15T13:07:49;94162.78;;;6.98;100.00
9277;BME280;4676;42.678;23.244;2023-01-15T13:10:21;94164.63;;;6.93;100.00
9277;BME280;4676;42.678;23.244;2023-01-15T13:12:51;94156.59;;;6.77;100.00
9277;BME280;4676;42.678;23.244;2023-01-15T13:15:20;94166.44;;;6.86;100.00
9277;BME280;4676;42.678;23.244;2023-01-15T13:17:58;94168.75;;;6.95;100.00
9277;BME280;4676;42.678;23.244;2023-01-15T13:20:37;94159.59;;;6.91;100.00
9277;BME280;4676;42.678;23.244;2023-01-15T13:23:08;94154.72;;;6.85;100.00
9277;BME280;4676;42.678;23.244;2023-01-15T13:25:52;94155.66;;;6.81;100.00
9277;BME280;4676;42.678;23.244;2023-01-15T13:28:34;94150.44;;;6.89;100.00
9277;BME280;4676;42.678;23.244;2023-01-15T13:31:16;94141.31;;;6.83;100.00
9277;BME280;4676;42.678;23.244;2023-01-15T13:33:54;94152.97;;;6.87;100.00